CHICAGO O'HARE INTL

KORD (ORD)
Chicago, Illinois
Towered

Vatsim Metar:
KORD 140551Z 20007KT 10SM FEW070 23/12 A2987 RMK AO2 SLP108 T02330117 10283 20228 403060189 58019

No ATC Online

Traffic

Inbound:
Ident
Type
Name
ETA
Phase
UAL532
B738
1382898 KLPR
06:26 Z
Cruse
CKS977
B744
George Ma ZSSS
10:13 Z
Cruse
AUA65
B772
Wolfgang Ferber EDDF
Unknown

Outbound:
Ident
Type
Name
Destination
Phase